createdAt,value
2024-01-22T00:00:01.419Z,66.61
2024-01-22T00:02:29.923Z,66.53
2024-01-22T00:04:57.885Z,67.07
2024-01-22T00:07:25.757Z,66.54
2024-01-22T00:09:54.056Z,66.95
2024-01-22T00:12:22.042Z,66.91
2024-01-22T00:14:50.028Z,67.34
2024-01-22T00:17:18.321Z,67.14
2024-01-22T00:19:46.371Z,67.15
2024-01-22T00:22:14.471Z,67.32
2024-01-22T00:24:42.329Z,67.45
2024-01-22T00:27:10.259Z,67.20
2024-01-22T00:29:38.458Z,67.66
2024-01-22T00:32:08.173Z,67.66
2024-01-22T00:34:36.343Z,67.17
2024-01-22T00:37:04.490Z,67.12
2024-01-22T00:39:32.773Z,67.33
2024-01-22T00:42:01.094Z,67.30
2024-01-22T00:44:29.096Z,67.49
2024-01-22T00:46:57.302Z,67.43
2024-01-22T00:49:25.350Z,67.73
2024-01-22T00:51:53.375Z,67.44
2024-01-22T00:54:21.334Z,67.34
2024-01-22T00:56:49.692Z,67.18
2024-01-22T00:59:17.510Z,66.86
2024-01-22T01:01:45.371Z,66.62
2024-01-22T01:04:14.392Z,66.56
2024-01-22T01:06:42.473Z,66.71
2024-01-22T01:09:10.468Z,66.72
2024-01-22T01:11:38.700Z,66.82
2024-01-22T01:14:06.615Z,66.93
2024-01-22T01:16:34.539Z,67.00
2024-01-22T01:19:02.564Z,66.96
2024-01-22T01:21:30.590Z,66.99
2024-01-22T01:23:58.466Z,67.05
2024-01-22T01:26:29.458Z,67.12
2024-01-22T01:28:57.529Z,67.15
2024-01-22T01:31:29.912Z,67.38
2024-01-22T01:33:58.251Z,67.11
2024-01-22T01:36:26.363Z,67.70
2024-01-22T01:38:54.236Z,67.44
2024-01-22T01:41:22.307Z,67.61
2024-01-22T01:43:50.159Z,67.44
2024-01-22T01:46:21.391Z,67.50
2024-01-22T01:48:57.642Z,67.86
2024-01-22T01:51:25.920Z,67.75
2024-01-22T01:53:57.532Z,68.03
2024-01-22T01:56:25.504Z,67.96
2024-01-22T01:58:55.694Z,67.74
2024-01-22T02:01:23.821Z,67.81
2024-01-22T02:03:54.285Z,67.85
2024-01-22T02:06:22.547Z,68.01
2024-01-22T02:08:51.691Z,67.77
2024-01-22T02:11:23.667Z,67.77
2024-01-22T02:13:51.722Z,68.04
2024-01-22T02:16:19.914Z,67.99
2024-01-22T02:18:48.941Z,68.13
2024-01-22T02:21:17.064Z,68.03
2024-01-22T02:23:44.996Z,68.05
2024-01-22T02:26:12.880Z,67.94
2024-01-22T02:28:40.787Z,67.44
2024-01-22T02:31:09.938Z,67.43
2024-01-22T02:33:37.925Z,67.47
2024-01-22T02:36:06.321Z,67.25
2024-01-22T02:38:34.186Z,67.32
2024-01-22T02:41:02.084Z,67.41
2024-01-22T02:43:29.986Z,67.06
2024-01-22T02:45:58.083Z,66.95
2024-01-22T02:48:26.175Z,66.90
2024-01-22T02:50:54.255Z,66.93
2024-01-22T02:53:22.215Z,66.64
2024-01-22T02:55:50.142Z,66.83
2024-01-22T02:58:18.194Z,66.83
2024-01-22T03:00:46.051Z,66.96
2024-01-22T03:03:14.053Z,66.94
2024-01-22T03:05:42.970Z,67.19
2024-01-22T03:08:11.011Z,67.18
2024-01-22T03:10:39.137Z,67.23
2024-01-22T03:13:06.960Z,67.09
2024-01-22T03:15:34.867Z,67.04
2024-01-22T03:18:02.869Z,66.69
2024-01-22T03:20:30.739Z,66.96
2024-01-22T03:23:01.642Z,66.72
2024-01-22T03:25:29.540Z,66.63
2024-01-22T03:27:57.492Z,66.78
2024-01-22T03:30:25.953Z,66.55
2024-01-22T03:32:53.938Z,66.37
2024-01-22T03:35:21.957Z,66.58
2024-01-22T03:37:49.768Z,66.52
2024-01-22T03:40:17.776Z,66.56
2024-01-22T03:42:45.668Z,66.42
2024-01-22T03:45:15.704Z,66.40
2024-01-22T03:47:43.754Z,66.23
2024-01-22T03:50:14.611Z,66.28
2024-01-22T03:52:42.985Z,66.00
2024-01-22T03:55:13.857Z,65.75
2024-01-22T03:57:41.809Z,65.70
2024-01-22T04:00:10.237Z,65.55
2024-01-22T04:02:38.275Z,65.67
2024-01-22T04:05:09.348Z,65.54
2024-01-22T04:07:37.365Z,65.39
2024-01-22T04:10:08.729Z,65.50
2024-01-22T04:12:36.747Z,65.71
2024-01-22T04:15:05.298Z,65.64
2024-01-22T04:17:33.444Z,65.70
2024-01-22T04:20:01.485Z,65.78
2024-01-22T04:22:32.385Z,65.49
2024-01-22T04:25:00.223Z,65.49
2024-01-22T04:27:28.121Z,64.96
2024-01-22T04:29:56.053Z,65.23
2024-01-22T04:32:23.968Z,65.26
2024-01-22T04:34:52.187Z,64.88
2024-01-22T04:37:22.399Z,64.89
2024-01-22T04:39:50.312Z,65.11
2024-01-22T04:42:21.751Z,64.51
2024-01-22T04:44:49.793Z,64.69
2024-01-22T04:47:17.718Z,64.78
2024-01-22T04:49:45.667Z,64.59
2024-01-22T04:52:14.141Z,64.36
2024-01-22T04:54:42.435Z,64.03
2024-01-22T04:57:10.376Z,64.38
2024-01-22T04:59:38.886Z,64.25
2024-01-22T05:02:07.013Z,64.42
2024-01-22T05:04:35.104Z,64.10
2024-01-22T05:07:03.429Z,64.22
2024-01-22T05:09:31.312Z,63.95
2024-01-22T05:12:00.954Z,64.06
2024-01-22T05:14:29.200Z,63.80
2024-01-22T05:16:57.098Z,63.86
2024-01-22T05:19:25.071Z,63.87
2024-01-22T05:21:52.962Z,63.76
2024-01-22T05:24:21.730Z,64.05
2024-01-22T05:26:49.751Z,63.72
2024-01-22T05:29:17.854Z,63.89
2024-01-22T05:31:45.841Z,63.91
2024-01-22T05:34:14.444Z,63.82
2024-01-22T05:36:44.239Z,63.81
2024-01-22T05:42:21.658Z,63.82
2024-01-22T05:44:49.804Z,63.50
2024-01-22T05:47:17.683Z,63.69
2024-01-22T05:49:46.143Z,63.54
2024-01-22T05:52:15.456Z,63.41
2024-01-22T05:54:43.407Z,63.63
2024-01-22T05:57:11.409Z,63.38
2024-01-22T05:59:41.102Z,63.64
2024-01-22T06:02:09.044Z,63.57
2024-01-22T06:04:37.001Z,63.67
2024-01-22T06:07:06.194Z,63.74
2024-01-22T06:09:34.322Z,63.57
2024-01-22T06:12:02.525Z,63.55
2024-01-22T06:14:30.843Z,63.42
2024-01-22T06:16:58.670Z,63.63
2024-01-22T06:19:26.504Z,63.78
2024-01-22T06:21:54.583Z,64.08
2024-01-22T06:24:22.592Z,64.18
2024-01-22T06:26:50.653Z,64.12
2024-01-22T06:29:18.623Z,63.74
2024-01-22T06:31:46.644Z,63.72
2024-01-22T06:34:14.676Z,63.88
2024-01-22T06:36:42.862Z,63.54
2024-01-22T06:39:10.793Z,63.74
2024-01-22T06:41:39.204Z,63.80
2024-01-22T06:44:08.039Z,64.00
2024-01-22T06:46:35.875Z,63.84
2024-01-22T06:49:09.032Z,64.16
2024-01-22T06:51:46.211Z,63.84
2024-01-22T06:54:15.934Z,63.80
2024-01-22T06:56:44.093Z,63.45
2024-01-22T06:59:12.098Z,63.76
2024-01-22T07:01:40.088Z,63.73
2024-01-22T07:04:09.398Z,63.56
2024-01-22T07:06:37.390Z,63.49
2024-01-22T07:09:07.684Z,63.69
2024-01-22T07:11:36.018Z,64.03
2024-01-22T07:14:05.385Z,64.00
2024-01-22T07:16:33.512Z,64.10
2024-01-22T07:19:01.822Z,64.01
2024-01-22T07:21:29.871Z,63.94
2024-01-22T07:23:57.953Z,63.94
2024-01-22T07:26:25.913Z,63.93
2024-01-22T07:28:53.781Z,63.90
2024-01-22T07:31:24.309Z,63.99
2024-01-22T07:33:52.460Z,63.34
2024-01-22T07:36:20.610Z,63.64
2024-01-22T07:38:49.297Z,63.60
2024-01-22T07:41:20.170Z,63.68
2024-01-22T07:43:48.714Z,63.68
2024-01-22T07:46:16.926Z,63.70
2024-01-22T07:48:45.094Z,63.71
2024-01-22T07:51:14.926Z,63.94
2024-01-22T07:53:42.988Z,63.92
2024-01-22T07:56:11.065Z,63.71
2024-01-22T07:58:40.729Z,63.51
2024-01-22T08:01:09.106Z,63.67
2024-01-22T08:03:37.152Z,63.77
2024-01-22T08:06:05.703Z,63.77
2024-01-22T08:08:33.640Z,63.97
2024-01-22T08:11:01.616Z,63.79
2024-01-22T08:13:29.525Z,64.12
2024-01-22T08:15:57.321Z,64.07
2024-01-22T08:18:25.404Z,64.00
2024-01-22T08:20:54.338Z,64.27
2024-01-22T08:23:22.367Z,64.18
2024-01-22T08:25:50.316Z,64.01
2024-01-22T08:28:18.211Z,64.25
2024-01-22T08:30:46.033Z,64.23
2024-01-22T08:33:14.023Z,64.24
2024-01-22T08:35:42.232Z,63.89
2024-01-22T08:38:10.188Z,64.00
2024-01-22T08:40:38.150Z,63.76
2024-01-22T08:43:06.909Z,64.02
2024-01-22T08:45:35.585Z,64.09
2024-01-22T08:48:03.674Z,64.00
2024-01-22T08:50:31.753Z,63.96
2024-01-22T08:53:00.168Z,63.79
2024-01-22T08:55:28.391Z,64.17
2024-01-22T08:57:56.521Z,64.14
2024-01-22T09:00:25.094Z,63.97
2024-01-22T09:02:53.706Z,63.86
2024-01-22T09:05:22.270Z,63.94
2024-01-22T09:07:50.449Z,63.96
2024-01-22T09:10:19.511Z,64.16
2024-01-22T09:12:50.094Z,63.60
2024-01-22T09:15:21.744Z,63.64
2024-01-22T09:17:50.599Z,63.93
2024-01-22T09:20:19.305Z,64.09
2024-01-22T09:22:47.563Z,64.08
2024-01-22T09:25:15.948Z,63.58
2024-01-22T09:27:43.890Z,63.64
2024-01-22T09:30:12.120Z,63.98
2024-01-22T09:32:40.477Z,64.31
2024-01-22T09:35:08.842Z,64.26
2024-01-22T09:37:36.682Z,64.33
2024-01-22T09:40:10.507Z,64.35
2024-01-22T09:42:42.408Z,64.16
2024-01-22T09:45:11.109Z,64.19
2024-01-22T09:47:39.237Z,64.32
2024-01-22T09:50:08.419Z,64.18
2024-01-22T09:52:36.636Z,64.52
2024-01-22T09:55:05.349Z,64.30
2024-01-22T09:57:33.620Z,63.98
2024-01-22T10:00:02.410Z,64.09
2024-01-22T10:02:30.567Z,63.64
2024-01-22T10:04:58.775Z,63.47
2024-01-22T10:07:26.632Z,63.73
2024-01-22T10:09:54.478Z,63.79
2024-01-22T10:12:22.512Z,63.94
2024-01-22T10:14:50.610Z,64.11
2024-01-22T10:17:22.817Z,64.16
2024-01-22T10:19:51.240Z,64.28
2024-01-22T10:22:21.100Z,64.06
2024-01-22T10:25:02.546Z,63.86
2024-01-22T10:27:30.677Z,63.69
2024-01-22T10:30:13.094Z,63.66
2024-01-22T10:32:41.520Z,63.58
2024-01-22T10:35:23.880Z,63.95
2024-01-22T10:38:13.090Z,64.25
2024-01-22T10:40:41.720Z,64.52
2024-01-22T10:43:22.285Z,64.37
2024-01-22T10:45:52.557Z,64.40
2024-01-22T10:48:37.698Z,64.71
2024-01-22T10:51:12.645Z,64.95
2024-01-22T10:53:43.148Z,65.25
2024-01-22T10:56:26.947Z,65.23
2024-01-22T10:58:58.377Z,64.11
2024-01-22T11:01:28.472Z,63.67
2024-01-22T11:03:58.559Z,63.62
2024-01-22T11:06:29.310Z,63.07
2024-01-22T11:08:59.031Z,62.78
2024-01-22T11:11:29.149Z,62.94
2024-01-22T11:14:00.622Z,62.43
2024-01-22T11:16:29.253Z,62.57
2024-01-22T11:18:59.534Z,62.65
2024-01-22T11:21:35.837Z,62.68
2024-01-22T11:24:17.958Z,62.94
2024-01-22T11:26:53.132Z,63.07
2024-01-22T11:29:27.562Z,62.89
2024-01-22T11:31:57.797Z,62.63
2024-01-22T11:34:42.776Z,62.85
2024-01-22T11:37:13.768Z,62.28
2024-01-22T11:39:48.485Z,61.81
2024-01-22T11:42:18.297Z,61.37
2024-01-22T11:44:50.191Z,60.87
2024-01-22T11:47:21.677Z,60.81
2024-01-22T11:49:50.143Z,60.59
2024-01-22T11:52:22.994Z,60.79
2024-01-22T11:54:58.746Z,60.59
2024-01-22T11:57:33.026Z,61.34
2024-01-22T12:00:06.964Z,60.01
2024-01-22T12:02:35.458Z,59.97
2024-01-22T12:05:07.426Z,60.64
2024-01-22T12:07:37.382Z,60.90
2024-01-22T12:10:07.232Z,60.98
2024-01-22T12:12:36.799Z,61.64
2024-01-22T12:15:06.583Z,62.06
2024-01-22T12:17:43.724Z,61.74
2024-01-22T12:20:13.627Z,61.84
2024-01-22T12:22:43.150Z,61.56
2024-01-22T12:25:13.792Z,61.43
2024-01-22T12:27:41.956Z,61.65
2024-01-22T12:30:15.643Z,61.91
2024-01-22T12:32:55.301Z,61.58
2024-01-22T12:35:26.902Z,61.55
2024-01-22T12:37:55.984Z,61.47
2024-01-22T12:40:25.153Z,61.79
2024-01-22T12:43:00.741Z,61.58
2024-01-22T12:45:29.479Z,61.34
2024-01-22T12:47:58.821Z,61.56
2024-01-22T12:50:27.273Z,61.03
2024-01-22T12:52:55.518Z,60.94
2024-01-22T12:55:23.751Z,61.21
2024-01-22T12:57:51.804Z,61.46
2024-01-22T13:00:20.115Z,61.60
2024-01-22T13:02:48.396Z,62.01
2024-01-22T13:05:16.682Z,61.51
2024-01-22T13:07:44.620Z,61.81
2024-01-22T13:10:12.697Z,61.76
2024-01-22T13:12:40.692Z,61.28
2024-01-22T13:15:11.650Z,61.78
2024-01-22T13:17:40.141Z,61.91
2024-01-22T13:20:09.180Z,61.71
2024-01-22T13:22:37.782Z,61.49
2024-01-22T13:25:06.242Z,61.23
2024-01-22T13:27:37.265Z,61.67
2024-01-22T13:30:06.345Z,61.68
2024-01-22T13:32:34.562Z,61.92
2024-01-22T13:35:03.024Z,61.92
2024-01-22T13:37:31.046Z,62.05
2024-01-22T13:39:59.161Z,61.93
2024-01-22T13:42:27.435Z,61.83
2024-01-22T13:44:55.535Z,61.37
2024-01-22T13:47:33.059Z,61.72
2024-01-22T13:50:07.152Z,61.49
2024-01-22T13:52:36.259Z,61.21
2024-01-22T13:55:06.207Z,61.55
2024-01-22T13:57:37.273Z,61.55
2024-01-22T14:00:06.249Z,61.29
2024-01-22T14:02:34.348Z,60.95
2024-01-22T14:05:02.905Z,61.38
2024-01-22T14:07:31.554Z,61.06
2024-01-22T14:09:59.438Z,60.99
2024-01-22T14:12:27.836Z,61.11
2024-01-22T14:14:56.103Z,61.07
2024-01-22T14:17:25.368Z,61.23
2024-01-22T14:19:54.211Z,61.42
2024-01-22T14:22:24.839Z,61.34
2024-01-22T14:24:52.701Z,61.34
2024-01-22T14:27:20.909Z,61.41
2024-01-22T14:29:49.737Z,61.78
2024-01-22T14:32:17.856Z,62.03
2024-01-22T14:34:46.124Z,62.03
2024-01-22T14:37:16.066Z,62.11
2024-01-22T14:39:44.983Z,62.32
2024-01-22T14:42:13.488Z,62.41
2024-01-22T14:44:41.775Z,62.39
2024-01-22T14:47:09.721Z,62.62
2024-01-22T14:49:37.864Z,62.67
2024-01-22T14:52:06.382Z,62.80
2024-01-22T14:54:34.216Z,62.92
2024-01-22T14:57:02.150Z,63.20
2024-01-22T14:59:32.311Z,63.07
2024-01-22T15:02:00.249Z,63.16
2024-01-22T15:04:28.463Z,63.22
2024-01-22T15:06:57.216Z,63.47
2024-01-22T15:09:25.273Z,63.47
2024-01-22T15:11:53.381Z,63.26
2024-01-22T15:14:23.535Z,63.30
2024-01-22T15:16:51.452Z,63.32
2024-01-22T15:19:19.876Z,63.51
2024-01-22T15:21:48.255Z,63.53
2024-01-22T15:24:18.451Z,63.65
2024-01-22T15:26:47.997Z,63.60
2024-01-22T15:29:16.408Z,63.58
2024-01-22T15:31:46.407Z,63.56
2024-01-22T15:34:15.987Z,63.64
2024-01-22T15:36:44.095Z,63.73
2024-01-22T15:39:12.839Z,63.80
2024-01-22T15:41:40.843Z,64.11
2024-01-22T15:44:10.444Z,64.22
2024-01-22T15:46:38.839Z,64.34
2024-01-22T15:49:08.184Z,64.54
2024-01-22T15:51:36.710Z,64.62
2024-01-22T15:54:04.622Z,64.55
2024-01-22T15:56:32.678Z,64.50
2024-01-22T15:59:00.746Z,64.72
2024-01-22T16:01:28.905Z,64.63
2024-01-22T16:03:57.152Z,64.90
2024-01-22T16:06:25.761Z,64.91
2024-01-22T16:08:54.743Z,64.99
2024-01-22T16:11:24.444Z,65.09
2024-01-22T16:13:53.103Z,65.06
2024-01-22T16:16:21.141Z,65.05
2024-01-22T16:18:49.335Z,65.09
2024-01-22T16:21:18.664Z,65.24
2024-01-22T16:23:46.911Z,65.27
2024-01-22T16:26:16.408Z,65.27
2024-01-22T16:28:44.634Z,65.30
2024-01-22T16:31:12.614Z,65.57
2024-01-22T16:33:40.906Z,65.60
2024-01-22T16:36:10.981Z,65.68
2024-01-22T16:38:41.272Z,65.81
2024-01-22T16:41:09.316Z,65.88
2024-01-22T16:43:37.246Z,65.90
2024-01-22T16:46:05.297Z,66.01
2024-01-22T16:48:33.479Z,66.19
2024-01-22T16:51:01.615Z,66.13
2024-01-22T16:53:29.725Z,66.25
2024-01-22T16:55:57.898Z,66.18
2024-01-22T16:58:25.817Z,66.32
2024-01-22T17:00:53.782Z,66.55
2024-01-22T17:03:21.952Z,66.40
2024-01-22T17:05:49.984Z,66.67
2024-01-22T17:08:18.125Z,66.85
2024-01-22T17:10:46.236Z,66.87
2024-01-22T17:13:15.216Z,66.98
2024-01-22T17:15:43.232Z,67.03
2024-01-22T17:18:11.382Z,67.16
2024-01-22T17:20:39.914Z,67.54
2024-01-22T17:23:09.836Z,67.61
2024-01-22T17:25:38.449Z,67.78
2024-01-22T17:28:06.876Z,68.27
2024-01-22T17:30:35.015Z,68.58
2024-01-22T17:33:03.641Z,68.53
2024-01-22T17:35:32.245Z,68.74
2024-01-22T17:38:00.602Z,68.56
2024-01-22T17:40:29.476Z,68.97
2024-01-22T17:42:57.792Z,69.06
2024-01-22T17:45:25.972Z,69.17
2024-01-22T17:47:54.300Z,69.45
2024-01-22T17:50:22.694Z,69.31
2024-01-22T17:52:51.557Z,69.43
2024-01-22T17:55:20.169Z,69.74
2024-01-22T17:57:49.814Z,69.31
2024-01-22T18:00:18.461Z,69.35
2024-01-22T18:02:46.849Z,69.18
2024-01-22T18:05:15.186Z,69.27
2024-01-22T18:07:43.200Z,69.43
2024-01-22T18:10:15.119Z,69.41
2024-01-22T18:12:44.442Z,69.59
2024-01-22T18:15:12.645Z,69.67
2024-01-22T18:17:40.823Z,69.70
2024-01-22T18:20:09.620Z,69.78
2024-01-22T18:22:40.562Z,69.91
2024-01-22T18:25:09.034Z,69.80
2024-01-22T18:27:39.359Z,69.95
2024-01-22T18:30:09.524Z,70.03
2024-01-22T18:32:37.782Z,70.02
2024-01-22T18:35:07.860Z,70.31
2024-01-22T18:37:35.972Z,70.50
2024-01-22T18:40:05.214Z,70.58
2024-01-22T18:42:51.805Z,70.74
2024-01-22T18:45:20.051Z,70.95
2024-01-22T18:47:48.081Z,70.90
2024-01-22T18:50:16.326Z,70.82
2024-01-22T18:52:46.415Z,70.96
2024-01-22T18:55:15.054Z,70.76
2024-01-22T18:57:43.105Z,70.84
2024-01-22T19:00:11.946Z,71.02
2024-01-22T19:02:40.609Z,71.10
2024-01-22T19:05:09.716Z,71.22
2024-01-22T19:07:38.202Z,71.27
2024-01-22T19:10:06.445Z,71.29
2024-01-22T19:12:34.530Z,71.43
2024-01-22T19:15:02.869Z,71.45
2024-01-22T19:17:31.024Z,71.71
2024-01-22T19:19:59.888Z,71.88
2024-01-22T19:22:28.171Z,72.02
2024-01-22T19:24:56.114Z,72.13
2024-01-22T19:27:24.270Z,72.07
2024-01-22T19:29:52.413Z,71.99
2024-01-22T19:32:20.475Z,71.97
2024-01-22T19:34:48.604Z,72.19
2024-01-22T19:37:16.626Z,72.06
2024-01-22T19:39:44.828Z,72.03
2024-01-22T19:42:13.026Z,71.85
2024-01-22T19:44:41.175Z,71.91
2024-01-22T19:47:10.522Z,71.95
2024-01-22T19:49:38.848Z,71.88
2024-01-22T19:52:07.070Z,72.03
2024-01-22T19:54:35.255Z,72.09
2024-01-22T19:57:05.112Z,72.35
2024-01-22T19:59:33.805Z,72.81
2024-01-22T20:02:01.845Z,72.88
2024-01-22T20:04:30.178Z,73.01
2024-01-22T20:06:58.515Z,73.27
2024-01-22T20:09:26.798Z,73.17
2024-01-22T20:11:55.664Z,73.12
2024-01-22T20:14:23.903Z,73.45
2024-01-22T20:16:51.947Z,73.53
2024-01-22T20:19:21.611Z,73.46
2024-01-22T20:21:49.712Z,73.18
2024-01-22T20:24:19.291Z,73.10
2024-01-22T20:26:47.787Z,73.30
2024-01-22T20:29:15.949Z,73.15
2024-01-22T20:31:43.873Z,73.12
2024-01-22T20:34:12.694Z,73.18
2024-01-22T20:36:41.061Z,73.39
2024-01-22T20:39:10.278Z,73.82
2024-01-22T20:41:41.376Z,73.60
2024-01-22T20:44:09.892Z,73.69
2024-01-22T20:46:38.065Z,73.56
2024-01-22T20:49:06.778Z,73.68
2024-01-22T20:51:35.725Z,73.75
2024-01-22T20:54:04.234Z,73.67
2024-01-22T20:56:32.315Z,73.62
2024-01-22T20:59:01.715Z,73.62
2024-01-22T21:01:30.064Z,73.56
2024-01-22T21:03:58.321Z,73.46
2024-01-22T21:06:26.983Z,73.48
2024-01-22T21:08:55.162Z,73.52
2024-01-22T21:11:23.295Z,73.53
2024-01-22T21:13:51.456Z,73.76
2024-01-22T21:16:21.584Z,73.78
2024-01-22T21:18:50.246Z,73.83
2024-01-22T21:21:18.708Z,73.76
2024-01-22T21:23:48.014Z,73.77
2024-01-22T21:26:18.084Z,73.78
2024-01-22T21:28:48.126Z,73.98
2024-01-22T21:31:16.357Z,73.91
2024-01-22T21:33:44.686Z,73.81
2024-01-22T21:36:13.299Z,73.90
2024-01-22T21:38:41.300Z,73.79
2024-01-22T21:41:09.529Z,73.76
2024-01-22T21:43:37.716Z,73.78
2024-01-22T21:46:07.954Z,73.70
2024-01-22T21:48:36.774Z,73.79
2024-01-22T21:51:06.322Z,73.73
2024-01-22T21:53:34.456Z,73.89
2024-01-22T21:56:03.248Z,73.99
2024-01-22T21:58:32.887Z,73.97
2024-01-22T22:01:00.946Z,74.05
2024-01-22T22:03:31.850Z,73.95
2024-01-22T22:06:01.611Z,74.19
2024-01-22T22:08:30.148Z,74.12
2024-01-22T22:10:58.431Z,73.97
2024-01-22T22:13:27.177Z,74.16
2024-01-22T22:15:55.948Z,73.96
2024-01-22T22:18:25.114Z,73.95
2024-01-22T22:20:53.561Z,73.94
2024-01-22T22:23:22.020Z,73.80
2024-01-22T22:25:49.891Z,73.74
2024-01-22T22:28:17.885Z,73.82
2024-01-22T22:30:45.934Z,73.99
2024-01-22T22:33:19.369Z,74.17
2024-01-22T22:35:47.346Z,74.62
2024-01-22T22:38:15.245Z,75.02
2024-01-22T22:40:43.450Z,75.57
2024-01-22T22:43:12.252Z,75.73
2024-01-22T22:45:40.275Z,75.99
2024-01-22T22:48:10.423Z,76.02
2024-01-22T22:50:38.717Z,75.83
2024-01-22T22:53:06.703Z,75.85
2024-01-22T22:55:34.626Z,75.81
2024-01-22T22:58:02.560Z,75.78
2024-01-22T23:00:30.560Z,75.43
2024-01-22T23:02:59.772Z,75.54
2024-01-22T23:05:30.579Z,75.70
2024-01-22T23:08:00.707Z,75.53
2024-01-22T23:10:28.683Z,75.53
2024-01-22T23:12:56.648Z,75.65
2024-01-22T23:15:24.675Z,75.54
2024-01-22T23:17:52.841Z,75.59
2024-01-22T23:20:20.762Z,75.61
2024-01-22T23:22:48.986Z,75.61
2024-01-22T23:25:17.068Z,75.48
2024-01-22T23:27:45.044Z,75.32
2024-01-22T23:30:13.577Z,75.16
2024-01-22T23:32:41.768Z,75.29
2024-01-22T23:35:09.917Z,75.00
2024-01-22T23:37:37.856Z,75.20
2024-01-22T23:40:06.547Z,75.15
2024-01-22T23:42:34.486Z,75.38
2024-01-22T23:45:05.534Z,75.46
2024-01-22T23:47:33.979Z,75.48
2024-01-22T23:50:02.119Z,75.49
2024-01-22T23:52:30.128Z,75.56
2024-01-22T23:54:58.215Z,75.76
2024-01-22T23:57:26.190Z,75.74
2024-01-22T23:59:55.773Z,75.76
